Main page
METAR-TAF:

METAR-TAF

Airports :

George Best Belfast City Airport

Belfast City, Northern Ireland

latitude: 54-36N, longitude: 005-53W, elevation: 5 m

Current weather observation

The report was made 34 minutes ago, at 00:20 UTC
Wind 16 kt from the Northeast
Temperature 7°C
Humidity 81%
Pressure 1012 hPa
Visibility 10 km or more

METAR: EGAC 210020Z AUTO 05016KT 9999 SCT026/// BKN032/// 07/04 Q1012

Time: 00:54 (00:54 UTC)

Forecast

The report was made 7 hours and 50 minutes ago, at 17:04 UTC
Forecast valid from 20 at 18 UTC to 20 at 22 UTC
Wind 15 kt from the Northeast
Visibility 10 km or more
Scattered clouds at a height of 2500 ft
Broken clouds at a height of 3500 ft
Temporary
from 20 at 18 UTC to 20 at 22 UTC
Wind 18 kt from the East/Northeast with gusts up to 28 kt

TAF: EGAC 201704Z 2018/2022 05015KT 9999 SCT025 BKN035 TEMPO 2018/2022 06018G28KT

Weather observations and forecasts of more than 4000 airports (METAR and TAF reports).

The available stations are represented by yellow and red dots on the map.

Hover mouse over dot to see the name of the station.

Then click to see weather observations and forecasts.

To change the map : click on the green buttons with a black cross to zoom in, on the green button with a dash to zoom out, or on the green arrows for adjacent maps.


METAR-TAF: